»·PEaware :: AAL198 KSBP-KSAN

AAL198 :: KSBP-KSAN

FLIGHT INFORMATION

Flight Status: Arrived
Operator:
American Airlines
More flights by this operator :: More flights under this callsign
Pilot: Max W. (2591)
Aircraft: BOEING 767-200
(B762)
More flights by this aircraft type
Origin: KSBP San Luis Co Regl
United States
Destination: KSAN San Diego Intl-Lindbergh
United States
More flights between these airports :: More routes between these airports
Route: +RZS J88 LAX COMIX2
File this flight plan on PilotEdge
Remarks:
Altitude:
(Current/Filed)
22,000ft
Speed:
(Current/Filed)
450kts
Departed: 07-Apr-19 06:12 PM
Arrived: 07-Apr-19 07:02 PM
Distance/Time
Traveled:
228nm/0:49
Distance/Time
To Go:
Arrived

Flight Plot

Page will automatically refresh every two minutes.

Flight plan parsing failed; only flown route is shown


Map Options




Map Legend


Flown Route
Filed Route
Departure Airport
Arrival Airport
Navaid (VOR, NDB)
Fix

Horizontal Profiles

Position Reports

Time Latitude Longitude Heading Altitude Ground
Speed
07-Apr-19 17:59 35.238805 -120.641189 1 192ft 0kts
07-Apr-19 18:00 35.238805 -120.641189 1 192ft 0kts
07-Apr-19 18:01 35.238805 -120.641189 1 192ft 0kts
07-Apr-19 18:02 35.238805 -120.641189 1 192ft 0kts
07-Apr-19 18:03 35.238805 -120.641189 1 192ft 0kts
07-Apr-19 18:04 35.238805 -120.641189 1 192ft 0kts
07-Apr-19 18:05 35.238420 -120.640923 295 192ft 2kts
07-Apr-19 18:06 35.238468 -120.640349 228 192ft 1kts
07-Apr-19 18:07 35.238472 -120.640343 228 192ft 0kts
07-Apr-19 18:08 35.236581 -120.637540 117 192ft 13kts
07-Apr-19 18:09 35.233465 -120.632120 144 192ft 1kts
07-Apr-19 18:10 35.233445 -120.632110 155 192ft 0kts
07-Apr-19 18:11 35.241528 -120.648161 306 1079ft 145kts
07-Apr-19 18:12 35.265983 -120.688233 308 4994ft 216kts
07-Apr-19 18:13 35.273451 -120.775591 254 8002ft 285kts
07-Apr-19 18:14 35.209775 -120.809588 153 10713ft 311kts
07-Apr-19 18:15 35.155437 -120.712621 124 13506ft 394kts
07-Apr-19 18:16 35.090333 -120.612304 129 19903ft 374kts
07-Apr-19 18:17 35.020271 -120.510224 130 21243ft 422kts
07-Apr-19 18:18 34.948397 -120.402111 129 21226ft 405kts
07-Apr-19 18:19 34.877454 -120.299288 130 21215ft 402kts
07-Apr-19 18:20 34.804705 -120.194579 130 21198ft 402kts
07-Apr-19 18:21 34.732211 -120.090571 130 21183ft 403kts
07-Apr-19 18:22 34.659781 -119.986962 130 21181ft 403kts
07-Apr-19 18:23 34.587330 -119.883634 130 21155ft 402kts
07-Apr-19 18:24 34.514892 -119.780427 128 21127ft 401kts
07-Apr-19 18:25 34.462366 -119.661559 115 21120ft 400kts
07-Apr-19 18:26 34.411450 -119.541319 115 21122ft 400kts
07-Apr-19 18:27 34.360476 -119.421571 115 21127ft 400kts
07-Apr-19 18:28 34.309710 -119.302734 116 21127ft 394kts
07-Apr-19 18:29 34.259189 -119.184882 116 21128ft 394kts
07-Apr-19 18:30 34.208493 -119.067016 116 21130ft 395kts
07-Apr-19 18:31 34.157160 -118.948106 115 21134ft 400kts
07-Apr-19 18:32 34.105500 -118.828834 115 21138ft 399kts
07-Apr-19 18:33 34.054059 -118.710451 115 21141ft 398kts
07-Apr-19 18:34 34.002438 -118.592074 115 21142ft 398kts
07-Apr-19 18:35 33.950082 -118.474322 115 21142ft 398kts
07-Apr-19 18:36 33.885234 -118.371249 131 21136ft 401kts
07-Apr-19 18:37 33.810305 -118.274118 132 21130ft 402kts
07-Apr-19 18:38 33.735232 -118.177471 131 21118ft 377kts
07-Apr-19 18:39 33.664626 -118.084231 130 21118ft 376kts
07-Apr-19 18:40 33.594380 -117.991280 131 21118ft 377kts
07-Apr-19 18:41 33.521622 -117.900792 135 20382ft 370kts
07-Apr-19 18:42 33.448155 -117.815300 134 19305ft 363kts
07-Apr-19 18:43 33.374087 -117.735138 137 18034ft 354kts
07-Apr-19 18:44 33.301473 -117.658898 137 16544ft 342kts
07-Apr-19 18:45 33.231283 -117.584449 137 15053ft 332kts
07-Apr-19 18:46 33.163038 -117.512120 137 13564ft 324kts
07-Apr-19 18:47 33.093397 -117.447487 144 12042ft 298kts
07-Apr-19 18:48 33.026886 -117.391842 143 11009ft 285kts
07-Apr-19 18:49 32.963126 -117.339059 144 10027ft 280kts
07-Apr-19 18:50 32.900014 -117.286512 144 9034ft 275kts
07-Apr-19 18:51 32.839951 -117.236477 144 8057ft 270kts
07-Apr-19 18:52 32.801350 -117.168548 103 7054ft 248kts
07-Apr-19 18:53 32.776012 -117.091931 111 5749ft 255kts
07-Apr-19 18:54 32.748917 -117.013753 111 4209ft 235kts
07-Apr-19 18:55 32.718907 -116.956628 171 3801ft 183kts
07-Apr-19 18:56 32.701133 -116.998057 276 3701ft 164kts
07-Apr-19 18:57 32.703165 -117.043306 295 2869ft 126kts
07-Apr-19 18:58 32.710296 -117.085565 277 1606ft 130kts
07-Apr-19 18:59 32.718709 -117.124576 286 556ft 114kts
07-Apr-19 19:00 32.727771 -117.165693 286 402ft 131kts
07-Apr-19 19:01 32.735187 -117.196426 285 25ft 38kts
07-Apr-19 19:02 32.736220 -117.201941 209 22ft 10kts
07-Apr-19 19:03 32.735625 -117.202110 190 22ft 0kts
07-Apr-19 19:04 32.734513 -117.203413 228 21ft 0kts
07-Apr-19 19:05 32.734179 -117.203517 177 21ft 33kts

Navigation Log

Ident Type
Flight plan parsing failed, navigation log unavailable